createdAt,value
2023-10-11T00:00:21.514Z,19.05
2023-10-11T00:01:20.570Z,19.05
2023-10-11T00:02:20.658Z,19.05
2023-10-11T00:03:20.760Z,19.06
2023-10-11T00:04:20.907Z,19.07
2023-10-11T00:05:21.932Z,19.02
2023-10-11T00:06:21.013Z,19.05
2023-10-11T00:07:21.035Z,19.05
2023-10-11T00:08:20.305Z,19.06
2023-10-11T00:09:20.343Z,19.07
2023-10-11T00:10:20.281Z,19.06
2023-10-11T00:11:20.349Z,19.06
2023-10-11T00:12:21.427Z,19.05
2023-10-11T00:13:20.100Z,19.02
2023-10-11T00:14:20.232Z,19.01
2023-10-11T00:15:21.447Z,19.05
2023-10-11T00:16:20.432Z,19.07
2023-10-11T00:17:20.564Z,19.07
2023-10-11T00:18:20.871Z,19.05
2023-10-11T00:19:20.900Z,19.02
2023-10-11T00:20:19.862Z,19.01
2023-10-11T00:21:20.092Z,18.97
2023-10-11T00:22:20.050Z,18.99
2023-10-11T00:23:21.227Z,18.99
2023-10-11T00:24:21.354Z,19.02
2023-10-11T00:25:20.391Z,19.06
2023-10-11T00:26:21.575Z,19.06
2023-10-11T00:27:20.649Z,19.07
2023-10-11T00:28:20.695Z,19.09
2023-10-11T00:29:19.769Z,19.09
2023-10-11T00:30:19.863Z,19.10
2023-10-11T00:31:19.964Z,19.13
2023-10-11T00:32:20.058Z,19.15
2023-10-11T00:33:30.829Z,19.12
2023-10-11T00:34:21.431Z,19.13
2023-10-11T00:35:20.317Z,19.10
2023-10-11T00:36:19.764Z,19.12
2023-10-11T00:37:19.833Z,19.10
2023-10-11T00:38:20.350Z,19.10
2023-10-11T00:39:20.491Z,19.09
2023-10-11T00:40:20.127Z,19.09
2023-10-11T00:41:21.373Z,19.07
2023-10-11T00:42:20.367Z,19.07
2023-10-11T00:43:20.517Z,19.05
2023-10-11T00:44:20.874Z,19.05
2023-10-11T00:45:20.556Z,19.02
2023-10-11T00:46:19.846Z,19.06
2023-10-11T00:47:19.813Z,19.06
2023-10-11T00:48:19.989Z,19.05
2023-10-11T00:49:20.609Z,19.01
2023-10-11T00:50:20.139Z,18.97
2023-10-11T00:51:20.264Z,18.96
2023-10-11T00:52:20.319Z,18.96
2023-10-11T00:53:20.392Z,18.96
2023-10-11T00:54:19.504Z,18.96
2023-10-11T00:55:19.607Z,19.01
2023-10-11T00:56:19.654Z,19.01
2023-10-11T00:57:19.856Z,19.02
2023-10-11T00:58:19.849Z,18.99
2023-10-11T00:59:20.176Z,18.93
2023-10-11T01:00:20.117Z,18.93
2023-10-11T01:01:20.244Z,18.90
2023-10-11T01:02:19.267Z,18.89
2023-10-11T01:03:19.499Z,18.87
2023-10-11T01:04:20.787Z,18.84
2023-10-11T01:05:19.591Z,18.84
2023-10-11T01:06:19.748Z,18.87
2023-10-11T01:07:19.832Z,18.89
2023-10-11T01:08:19.952Z,18.91
2023-10-11T01:09:20.992Z,18.94
2023-10-11T01:10:19.253Z,18.93
2023-10-11T01:11:19.348Z,18.93
2023-10-11T01:12:20.513Z,18.89
2023-10-11T01:13:19.537Z,18.87
2023-10-11T01:14:19.647Z,18.87
2023-10-11T01:15:19.794Z,18.84
2023-10-11T01:16:19.925Z,18.89
2023-10-11T01:17:19.999Z,18.94
2023-10-11T01:18:19.800Z,18.94
2023-10-11T01:19:19.691Z,18.91
2023-10-11T01:20:19.307Z,18.91
2023-10-11T01:21:19.421Z,18.90
2023-10-11T01:22:19.525Z,18.91
2023-10-11T01:23:19.612Z,18.94
2023-10-11T01:24:19.919Z,18.91
2023-10-11T01:25:19.879Z,18.90
2023-10-11T01:26:18.906Z,18.87
2023-10-11T01:27:19.086Z,18.87
2023-10-11T01:28:19.124Z,18.86
2023-10-11T01:29:19.484Z,18.86
2023-10-11T01:30:19.502Z,18.84
2023-10-11T01:31:19.412Z,18.83
2023-10-11T01:32:19.534Z,18.83
2023-10-11T01:33:19.735Z,18.83
2023-10-11T01:34:19.959Z,18.82
2023-10-11T01:35:18.798Z,18.82
2023-10-11T01:36:18.956Z,18.90
2023-10-11T01:37:19.059Z,18.91
2023-10-11T01:38:19.182Z,18.93
2023-10-11T01:39:23.693Z,18.91
2023-10-11T01:40:20.770Z,18.93
2023-10-11T01:41:20.394Z,18.93
2023-10-11T01:42:19.524Z,18.94
2023-10-11T01:43:20.639Z,18.97
2023-10-11T01:44:18.667Z,18.99
2023-10-11T01:45:18.829Z,18.99
2023-10-11T01:46:18.907Z,18.99
2023-10-11T01:47:18.983Z,19.02
2023-10-11T01:48:19.201Z,19.01
2023-10-11T01:49:20.245Z,19.01
2023-10-11T01:50:19.312Z,18.99
2023-10-11T01:51:19.384Z,18.97
2023-10-11T01:52:20.267Z,18.94
2023-10-11T01:53:18.580Z,18.91
2023-10-11T01:54:19.697Z,18.94
2023-10-11T01:55:18.779Z,18.97
2023-10-11T01:56:18.889Z,18.99
2023-10-11T01:57:18.980Z,19.01
2023-10-11T01:58:19.116Z,19.01
2023-10-11T01:59:20.234Z,18.97
2023-10-11T02:00:19.251Z,18.94
2023-10-11T02:01:19.347Z,18.93
2023-10-11T02:02:19.429Z,18.96
2023-10-11T02:03:18.527Z,18.97
2023-10-11T02:04:20.082Z,18.97
2023-10-11T02:05:18.711Z,18.99
2023-10-11T02:06:18.802Z,18.96
2023-10-11T02:07:18.842Z,18.96
2023-10-11T02:08:18.959Z,18.94
2023-10-11T02:09:20.288Z,18.93
2023-10-11T02:10:19.722Z,18.93
2023-10-11T02:11:19.244Z,18.93
2023-10-11T02:12:18.491Z,18.94
2023-10-11T02:13:18.541Z,18.93
2023-10-11T02:14:18.654Z,18.93
2023-10-11T02:15:20.991Z,18.93
2023-10-11T02:16:18.915Z,18.94
2023-10-11T02:17:18.973Z,18.94
2023-10-11T02:18:19.174Z,18.94
2023-10-11T02:19:19.215Z,18.93
2023-10-11T02:20:19.210Z,18.93
2023-10-11T02:21:18.371Z,18.91
2023-10-11T02:22:18.362Z,18.90
2023-10-11T02:23:18.495Z,18.90
2023-10-11T02:24:18.665Z,18.90
2023-10-11T02:25:18.722Z,18.86
2023-10-11T02:26:18.244Z,18.87
2023-10-11T02:27:19.465Z,18.89
2023-10-11T02:28:18.527Z,18.90
2023-10-11T02:29:18.856Z,18.93
2023-10-11T02:30:18.838Z,18.91
2023-10-11T02:31:18.962Z,18.89
2023-10-11T02:32:19.056Z,18.89
2023-10-11T02:33:18.208Z,18.91
2023-10-11T02:34:18.295Z,18.91
2023-10-11T02:35:18.450Z,18.93
2023-10-11T02:36:18.664Z,18.94
2023-10-11T02:37:20.630Z,18.93
2023-10-11T02:38:18.773Z,18.94
2023-10-11T02:39:25.109Z,18.96
2023-10-11T02:40:17.952Z,18.91
2023-10-11T02:41:18.082Z,18.90
2023-10-11T02:42:18.224Z,18.90
2023-10-11T02:43:19.018Z,18.86
2023-10-11T02:44:18.391Z,18.84
2023-10-11T02:45:18.539Z,18.84
2023-10-11T02:46:18.621Z,18.84
2023-10-11T02:47:18.733Z,18.84
2023-10-11T02:48:18.885Z,18.84
2023-10-11T02:49:18.012Z,18.83
2023-10-11T02:50:17.997Z,18.82
2023-10-11T02:51:18.125Z,18.79
2023-10-11T02:52:18.205Z,18.83
2023-10-11T02:53:18.290Z,18.79
2023-10-11T02:54:18.539Z,18.82
2023-10-11T02:55:18.523Z,18.79
2023-10-11T02:56:18.676Z,18.83
2023-10-11T02:57:17.735Z,18.75
2023-10-11T02:58:17.899Z,18.74
2023-10-11T02:59:18.027Z,18.72
2023-10-11T03:00:18.087Z,18.69
2023-10-11T03:01:21.538Z,18.69
2023-10-11T03:02:18.286Z,18.68
2023-10-11T03:03:18.552Z,18.65
2023-10-11T03:04:18.596Z,18.62
2023-10-11T03:05:19.578Z,18.62
2023-10-11T03:06:17.673Z,18.62
2023-10-11T03:07:18.752Z,18.62
2023-10-11T03:08:17.820Z,18.62
2023-10-11T03:09:18.042Z,18.59
2023-10-11T03:10:17.993Z,18.59
2023-10-11T03:11:18.122Z,18.56
2023-10-11T03:12:18.309Z,18.57
2023-10-11T03:13:18.351Z,18.57
2023-10-11T03:14:18.364Z,18.57
2023-10-11T03:15:18.556Z,18.56
2023-10-11T03:16:17.545Z,18.53
2023-10-11T03:17:17.658Z,18.50
2023-10-11T03:18:17.699Z,18.51
2023-10-11T03:19:17.955Z,18.53
2023-10-11T03:20:17.901Z,18.50
2023-10-11T03:21:18.094Z,18.50
2023-10-11T03:22:18.209Z,18.50
2023-10-11T03:23:18.277Z,18.50
2023-10-11T03:24:18.505Z,18.46
2023-10-11T03:25:17.498Z,18.46
2023-10-11T03:26:17.596Z,18.46
2023-10-11T03:27:17.738Z,18.46
2023-10-11T03:28:18.054Z,18.44
2023-10-11T03:29:18.092Z,18.42
2023-10-11T03:30:18.108Z,18.42
2023-10-11T03:31:17.378Z,18.42
2023-10-11T03:32:17.518Z,18.41
2023-10-11T03:33:17.676Z,18.39
2023-10-11T03:34:17.739Z,18.38
2023-10-11T03:35:17.858Z,18.38
2023-10-11T03:36:17.942Z,18.35
2023-10-11T03:37:18.005Z,18.34
2023-10-11T03:38:18.117Z,18.34
2023-10-11T03:39:17.418Z,18.34
2023-10-11T03:40:17.292Z,18.32
2023-10-11T03:41:17.367Z,18.32
2023-10-11T03:42:17.489Z,18.31
2023-10-11T03:43:17.602Z,18.31
2023-10-11T03:44:17.719Z,18.29
2023-10-11T03:45:18.905Z,18.29
2023-10-11T03:46:17.966Z,18.28
2023-10-11T03:47:17.053Z,18.28
2023-10-11T03:48:17.176Z,18.28
2023-10-11T03:49:18.514Z,18.26
2023-10-11T03:50:17.420Z,18.25
2023-10-11T03:51:17.548Z,18.23
2023-10-11T03:52:17.596Z,18.28
2023-10-11T03:53:17.743Z,18.31
2023-10-11T03:54:18.796Z,18.32
2023-10-11T03:55:17.903Z,18.32
2023-10-11T03:56:16.978Z,18.32
2023-10-11T03:57:17.155Z,18.31
2023-10-11T03:58:17.226Z,18.29
2023-10-11T03:59:17.439Z,18.29
2023-10-11T04:00:20.027Z,18.29
2023-10-11T04:01:17.599Z,18.28
2023-10-11T04:02:17.712Z,18.28
2023-10-11T04:03:17.852Z,18.28
2023-10-11T04:04:16.945Z,18.25
2023-10-11T04:05:17.861Z,18.25
2023-10-11T04:06:17.115Z,18.19
2023-10-11T04:07:17.138Z,18.14
2023-10-11T04:08:17.305Z,18.09
2023-10-11T04:09:17.489Z,18.09
2023-10-11T04:10:17.440Z,18.02
2023-10-11T04:11:17.516Z,17.99
2023-10-11T04:12:17.694Z,17.96
2023-10-11T04:13:16.724Z,17.91
2023-10-11T04:14:17.888Z,17.92
2023-10-11T04:15:16.897Z,17.89
2023-10-11T04:16:17.013Z,17.87
2023-10-11T04:17:17.145Z,17.89
2023-10-11T04:18:17.318Z,17.86
2023-10-11T04:19:20.646Z,17.83
2023-10-11T04:20:17.460Z,17.80
2023-10-11T04:21:17.617Z,17.76
2023-10-11T04:22:17.636Z,17.73
2023-10-11T04:23:16.737Z,17.70
2023-10-11T04:24:17.820Z,17.70
2023-10-11T04:25:16.924Z,17.65
2023-10-11T04:26:17.933Z,17.62
2023-10-11T04:27:17.108Z,17.57
2023-10-11T04:28:18.123Z,17.53
2023-10-11T04:29:17.676Z,17.51
2023-10-11T04:30:17.499Z,17.46
2023-10-11T04:31:17.518Z,17.43
2023-10-11T04:32:16.560Z,17.40
2023-10-11T04:33:16.718Z,17.38
2023-10-11T04:34:16.764Z,17.35
2023-10-11T04:35:16.888Z,17.33
2023-10-11T04:36:17.083Z,17.30
2023-10-11T04:37:17.112Z,17.27
2023-10-11T04:38:17.239Z,17.24
2023-10-11T04:39:17.790Z,17.21
2023-10-11T04:40:17.600Z,17.17
2023-10-11T04:41:17.740Z,17.14
2023-10-11T04:42:16.709Z,17.10
2023-10-11T04:43:16.755Z,17.07
2023-10-11T04:44:22.105Z,17.05
2023-10-11T04:45:17.069Z,17.05
2023-10-11T04:46:17.389Z,17.05
2023-10-11T04:47:17.229Z,17.00
2023-10-11T04:48:16.400Z,17.02
2023-10-11T04:49:16.780Z,17.03
2023-10-11T04:50:17.426Z,17.02
2023-10-11T04:51:17.581Z,17.00
2023-10-11T04:52:16.690Z,17.02
2023-10-11T04:53:16.869Z,17.00
2023-10-11T04:54:17.095Z,17.05
2023-10-11T04:55:17.055Z,17.05
2023-10-11T04:56:17.142Z,17.05
2023-10-11T04:57:16.228Z,17.06
2023-10-11T04:58:16.447Z,17.10
2023-10-11T04:59:20.601Z,17.12
2023-10-11T05:00:16.592Z,17.17
2023-10-11T05:01:17.717Z,17.22
2023-10-11T05:02:16.771Z,17.28
2023-10-11T05:03:17.139Z,17.30
2023-10-11T05:04:17.347Z,17.27
2023-10-11T05:05:16.086Z,17.24
2023-10-11T05:06:17.159Z,17.25
2023-10-11T05:07:16.251Z,17.25
2023-10-11T05:08:17.329Z,17.25
2023-10-11T05:09:16.796Z,17.24
2023-10-11T05:10:16.576Z,17.25
2023-10-11T05:11:16.635Z,17.22
2023-10-11T05:12:17.715Z,17.22
2023-10-11T05:13:16.820Z,17.21
2023-10-11T05:14:16.904Z,17.20
2023-10-11T05:15:16.030Z,17.20
2023-10-11T05:16:17.149Z,17.20
2023-10-11T05:17:16.464Z,17.18
2023-10-11T05:18:16.372Z,17.15
2023-10-11T05:19:16.675Z,17.09
2023-10-11T05:20:16.451Z,17.07
2023-10-11T05:21:16.599Z,17.03
2023-10-11T05:22:16.714Z,17.00
2023-10-11T05:23:16.807Z,16.98
2023-10-11T05:24:15.917Z,16.95
2023-10-11T05:25:15.966Z,16.88
2023-10-11T05:26:16.111Z,16.90
2023-10-11T05:27:16.218Z,16.88
2023-10-11T05:28:16.307Z,16.87
2023-10-11T05:29:16.540Z,16.87
2023-10-11T05:30:16.513Z,16.84
2023-10-11T05:31:16.715Z,16.87
2023-10-11T05:32:16.719Z,16.85
2023-10-11T05:33:15.828Z,16.84
2023-10-11T05:34:15.977Z,16.82
2023-10-11T05:35:15.973Z,16.80
2023-10-11T05:36:16.098Z,16.80
2023-10-11T05:37:16.185Z,16.80
2023-10-11T05:38:16.289Z,16.81
2023-10-11T05:39:16.827Z,16.81
2023-10-11T05:40:16.478Z,16.84
2023-10-11T05:41:16.075Z,16.84
2023-10-11T05:42:16.071Z,16.85
2023-10-11T05:43:15.765Z,16.85
2023-10-11T05:44:15.881Z,16.88
2023-10-11T05:45:16.108Z,16.91
2023-10-11T05:46:16.139Z,16.92
2023-10-11T05:47:16.209Z,16.92
2023-10-11T05:48:16.442Z,16.92
2023-10-11T05:49:17.736Z,16.96
2023-10-11T05:50:15.534Z,16.96
2023-10-11T05:51:15.735Z,16.98
2023-10-11T05:52:15.747Z,16.99
2023-10-11T05:53:15.885Z,17.02
2023-10-11T05:54:16.022Z,17.05
2023-10-11T05:55:16.069Z,17.09
2023-10-11T05:56:16.191Z,17.10
2023-10-11T05:57:16.293Z,17.15
2023-10-11T05:58:17.343Z,17.15
2023-10-11T05:59:15.774Z,17.17
2023-10-11T06:00:16.587Z,17.20
2023-10-11T06:01:15.658Z,17.21
2023-10-11T06:02:15.761Z,17.22
2023-10-11T06:03:15.987Z,17.24
2023-10-11T06:04:16.065Z,17.25
2023-10-11T06:05:16.104Z,17.24
2023-10-11T06:06:16.342Z,17.25
2023-10-11T06:07:15.281Z,17.25
2023-10-11T06:08:15.476Z,17.25
2023-10-11T06:09:23.871Z,17.27
2023-10-11T06:10:15.680Z,17.25
2023-10-11T06:11:15.812Z,17.24
2023-10-11T06:12:15.971Z,17.21
2023-10-11T06:13:16.107Z,17.21
2023-10-11T06:14:15.190Z,17.24
2023-10-11T06:15:15.342Z,17.22
2023-10-11T06:16:15.418Z,17.22
2023-10-11T06:17:15.506Z,17.22
2023-10-11T06:18:15.709Z,17.25
2023-10-11T06:19:16.136Z,17.24
2023-10-11T06:20:15.927Z,17.27
2023-10-11T06:21:16.066Z,17.28
2023-10-11T06:22:15.199Z,17.28
2023-10-11T06:23:17.290Z,17.30
2023-10-11T06:24:15.372Z,17.33
2023-10-11T06:25:15.649Z,17.35
2023-10-11T06:26:15.632Z,17.36
2023-10-11T06:27:18.858Z,17.40
2023-10-11T06:28:15.889Z,17.42
2023-10-11T06:29:15.012Z,17.42
2023-10-11T06:30:15.173Z,17.42
2023-10-11T06:31:18.397Z,17.38
2023-10-11T06:33:16.619Z,17.32
2023-10-11T06:34:15.633Z,17.32
2023-10-11T06:35:15.789Z,17.32
2023-10-11T06:36:15.925Z,17.30
2023-10-11T06:37:15.061Z,17.28
2023-10-11T06:38:16.088Z,17.28
2023-10-11T06:39:15.167Z,17.30
2023-10-11T06:40:15.264Z,17.27
2023-10-11T06:41:17.369Z,17.27
2023-10-11T06:42:15.505Z,17.21
2023-10-11T06:43:15.455Z,17.22
2023-10-11T06:44:15.542Z,17.22
2023-10-11T06:45:17.776Z,17.24
2023-10-11T06:46:15.746Z,17.24
2023-10-11T06:47:14.833Z,17.22
2023-10-11T06:48:16.145Z,17.25
2023-10-11T06:49:15.119Z,17.24
2023-10-11T06:50:15.142Z,17.25
2023-10-11T06:51:15.332Z,17.27
2023-10-11T06:52:15.395Z,17.27
2023-10-11T06:53:17.581Z,17.28
2023-10-11T06:54:15.587Z,17.30
2023-10-11T06:55:16.361Z,17.30
2023-10-11T06:56:14.656Z,17.33
2023-10-11T06:57:15.833Z,17.36
2023-10-11T06:58:14.864Z,17.40
2023-10-11T06:59:15.049Z,17.42
2023-10-11T07:00:15.097Z,17.43
2023-10-11T07:01:15.402Z,17.47
2023-10-11T07:02:15.307Z,17.53
2023-10-11T07:03:17.023Z,17.57
2023-10-11T07:04:15.593Z,17.62
2023-10-11T07:05:14.591Z,17.65
2023-10-11T07:06:14.658Z,17.66
2023-10-11T07:07:14.713Z,17.68
2023-10-11T07:08:14.810Z,17.70
2023-10-11T07:09:14.903Z,17.71
2023-10-11T07:10:15.035Z,17.71
2023-10-11T07:11:16.137Z,17.73
2023-10-11T07:12:15.242Z,17.76
2023-10-11T07:13:15.326Z,17.79
2023-10-11T07:14:14.400Z,17.79
2023-10-11T07:15:14.569Z,17.80
2023-10-11T07:16:14.757Z,17.79
2023-10-11T07:17:15.792Z,17.80
2023-10-11T07:18:15.903Z,17.81
2023-10-11T07:19:14.880Z,17.80
2023-10-11T07:20:14.985Z,17.81
2023-10-11T07:21:17.455Z,17.86
2023-10-11T07:22:15.162Z,17.87
2023-10-11T07:23:15.269Z,17.91
2023-10-11T07:24:14.313Z,17.94
2023-10-11T07:25:14.396Z,17.96
2023-10-11T07:26:14.502Z,17.98
2023-10-11T07:27:14.667Z,17.99
2023-10-11T07:28:14.719Z,18.01
2023-10-11T07:29:19.999Z,18.05
2023-10-11T07:30:15.872Z,18.07
2023-10-11T07:31:17.047Z,18.09
2023-10-11T07:32:15.126Z,18.09
2023-10-11T07:33:15.225Z,18.11
2023-10-11T07:34:15.317Z,18.13
2023-10-11T07:35:14.188Z,18.14
2023-10-11T07:36:14.336Z,18.14
2023-10-11T07:37:15.582Z,18.17
2023-10-11T07:38:14.436Z,18.17
2023-10-11T07:39:14.615Z,18.19
2023-10-11T07:40:14.638Z,18.23
2023-10-11T07:41:14.726Z,18.28
2023-10-11T07:42:14.881Z,18.29
2023-10-11T07:43:15.980Z,18.34
2023-10-11T07:44:15.036Z,18.39
2023-10-11T07:45:14.636Z,18.44
2023-10-11T07:46:14.232Z,18.47
2023-10-11T07:47:14.272Z,18.51
2023-10-11T07:48:14.468Z,18.57
2023-10-11T07:49:24.696Z,18.60
2023-10-11T07:50:14.541Z,18.65
2023-10-11T07:51:14.660Z,18.69
2023-10-11T07:52:14.765Z,18.75
2023-10-11T07:53:14.819Z,18.78
2023-10-11T07:54:14.899Z,18.83
2023-10-11T07:55:17.095Z,18.90
2023-10-11T07:56:14.043Z,18.97
2023-10-11T07:57:15.379Z,18.99
2023-10-11T07:58:14.220Z,19.01
2023-10-11T07:59:14.321Z,19.06
2023-10-11T08:00:14.470Z,19.06
2023-10-11T08:01:14.753Z,19.07
2023-10-11T08:02:14.702Z,19.09
2023-10-11T08:03:14.890Z,19.10
2023-10-11T08:04:13.840Z,19.10
2023-10-11T08:05:13.961Z,19.10
2023-10-11T08:06:13.996Z,19.13
2023-10-11T08:07:14.217Z,19.16
2023-10-11T08:08:14.206Z,19.21
2023-10-11T08:09:14.286Z,19.24
2023-10-11T08:10:14.312Z,19.25
2023-10-11T08:11:14.417Z,19.27
2023-10-11T08:12:14.535Z,19.28
2023-10-11T08:13:14.555Z,19.30
2023-10-11T08:14:13.596Z,19.32
2023-10-11T08:15:14.738Z,19.31
2023-10-11T08:16:13.812Z,19.32
2023-10-11T08:17:13.844Z,19.39
2023-10-11T08:18:14.060Z,19.43
2023-10-11T08:19:14.945Z,19.45
2023-10-11T08:20:14.072Z,19.46
2023-10-11T08:21:14.178Z,19.50
2023-10-11T08:22:14.208Z,19.52
2023-10-11T08:23:14.394Z,19.60
2023-10-11T08:24:14.417Z,19.60
2023-10-11T08:25:13.422Z,19.65
2023-10-11T08:26:13.474Z,19.68
2023-10-11T08:27:13.592Z,19.70
2023-10-11T08:28:14.276Z,19.71
2023-10-11T08:29:13.780Z,19.78
2023-10-11T08:30:13.900Z,19.78
2023-10-11T08:31:13.969Z,19.78
2023-10-11T08:32:14.044Z,19.83
2023-10-11T08:33:17.344Z,19.80
2023-10-11T08:34:14.194Z,19.86
2023-10-11T08:35:14.292Z,19.89
2023-10-11T08:36:17.610Z,19.89
2023-10-11T08:37:13.392Z,19.90
2023-10-11T08:38:13.542Z,19.94
2023-10-11T08:39:13.631Z,19.97
2023-10-11T08:40:14.090Z,19.98
2023-10-11T08:41:13.745Z,20.00
2023-10-11T08:42:13.877Z,20.01
2023-10-11T08:43:13.903Z,19.98
2023-10-11T08:44:14.008Z,20.00
2023-10-11T08:45:14.163Z,20.00
2023-10-11T08:46:13.274Z,20.01
2023-10-11T08:47:13.292Z,20.00
2023-10-11T08:48:13.437Z,20.02
2023-10-11T08:49:13.495Z,20.05
2023-10-11T08:50:13.546Z,20.04
2023-10-11T08:51:13.811Z,20.10
2023-10-11T08:52:13.688Z,20.13
2023-10-11T08:53:13.789Z,20.19
2023-10-11T08:54:16.173Z,20.23
2023-10-11T08:55:13.892Z,20.27
2023-10-11T08:56:14.031Z,20.30
2023-10-11T08:57:13.016Z,20.30
2023-10-11T08:58:13.082Z,20.33
2023-10-11T08:59:13.200Z,20.33
2023-10-11T09:00:16.471Z,20.31
2023-10-11T09:01:13.428Z,20.34
2023-10-11T09:02:16.641Z,20.37
2023-10-11T09:03:13.674Z,20.38
2023-10-11T09:04:13.838Z,20.41
2023-10-11T09:05:13.739Z,20.40
2023-10-11T09:06:13.861Z,20.42
2023-10-11T09:07:12.873Z,20.42
2023-10-11T09:08:13.364Z,20.46
2023-10-11T09:09:13.059Z,20.53
2023-10-11T09:10:13.149Z,20.57
2023-10-11T09:11:13.850Z,20.60
2023-10-11T09:12:13.310Z,20.63
2023-10-11T09:13:13.349Z,20.63
2023-10-11T09:14:13.464Z,20.64
2023-10-11T09:15:13.565Z,20.66
2023-10-11T09:16:13.812Z,20.64
2023-10-11T09:17:13.658Z,20.68
2023-10-11T09:18:12.828Z,20.72
2023-10-11T09:19:12.820Z,20.75
2023-10-11T09:20:12.890Z,20.75
2023-10-11T09:21:13.027Z,20.83
2023-10-11T09:22:13.025Z,20.85
2023-10-11T09:23:17.243Z,20.85
2023-10-11T09:24:13.212Z,20.88
2023-10-11T09:25:17.504Z,20.87
2023-10-11T09:26:13.324Z,20.88
2023-10-11T09:27:13.489Z,20.90
2023-10-11T09:28:13.495Z,20.96
2023-10-11T09:29:14.569Z,20.98
2023-10-11T09:30:12.697Z,21.01
2023-10-11T09:31:13.517Z,21.01
2023-10-11T09:32:13.751Z,21.01
2023-10-11T09:33:12.976Z,21.03
2023-10-11T09:34:17.299Z,21.05
2023-10-11T09:35:13.026Z,21.09
2023-10-11T09:36:13.135Z,21.12
2023-10-11T09:37:13.751Z,21.16
2023-10-11T09:38:13.272Z,21.19
2023-10-11T09:39:13.389Z,21.24
2023-10-11T09:40:13.435Z,21.26
2023-10-11T09:41:12.466Z,21.26
2023-10-11T09:42:17.986Z,21.28
2023-10-11T09:43:13.592Z,21.27
2023-10-11T09:44:13.722Z,21.31
2023-10-11T09:45:12.854Z,21.36
2023-10-11T09:46:12.982Z,21.37
2023-10-11T09:47:12.971Z,21.38
2023-10-11T09:48:13.277Z,21.40
2023-10-11T09:49:13.177Z,21.46
2023-10-11T09:50:13.278Z,21.46
2023-10-11T09:51:12.371Z,21.49
2023-10-11T09:52:12.397Z,21.52
2023-10-11T09:53:13.444Z,21.53
2023-10-11T09:54:13.352Z,21.52
2023-10-11T09:55:12.623Z,21.51
2023-10-11T09:56:12.695Z,21.52
2023-10-11T09:57:17.993Z,21.56
2023-10-11T09:58:12.914Z,21.53
2023-10-11T09:59:12.941Z,21.56
2023-10-11T10:00:13.067Z,21.58
2023-10-11T10:01:13.290Z,21.63
2023-10-11T10:02:12.195Z,21.66
2023-10-11T10:03:12.410Z,21.68
2023-10-11T10:04:12.462Z,21.71
2023-10-11T10:05:12.499Z,21.73
2023-10-11T10:06:12.591Z,21.74
2023-10-11T10:07:12.630Z,21.81
2023-10-11T10:08:12.658Z,21.79
2023-10-11T10:09:12.845Z,21.82
2023-10-11T10:10:12.901Z,21.85
2023-10-11T10:11:12.933Z,21.86
2023-10-11T10:12:13.137Z,21.93
2023-10-11T10:13:12.068Z,21.94
2023-10-11T10:14:12.147Z,21.98
2023-10-11T10:15:12.198Z,21.91
2023-10-11T10:16:12.297Z,21.91
2023-10-11T10:17:20.786Z,21.96
2023-10-11T10:18:12.566Z,21.98
2023-10-11T10:19:12.574Z,21.99
2023-10-11T10:20:12.629Z,21.99
2023-10-11T10:21:12.782Z,22.04
2023-10-11T10:22:12.798Z,22.08
2023-10-11T10:23:14.151Z,22.11
2023-10-11T10:24:11.995Z,22.12
2023-10-11T10:25:12.149Z,22.19
2023-10-11T10:26:12.196Z,22.26
2023-10-11T10:27:12.273Z,22.29
2023-10-11T10:28:12.353Z,22.35
2023-10-11T10:29:12.578Z,22.36
2023-10-11T10:30:12.570Z,22.38
2023-10-11T10:31:12.724Z,22.41
2023-10-11T10:32:12.713Z,22.46
2023-10-11T10:33:12.818Z,22.48
2023-10-11T10:34:15.810Z,22.54
2023-10-11T10:35:11.993Z,22.51
2023-10-11T10:36:12.020Z,22.51
2023-10-11T10:37:12.993Z,22.54
2023-10-11T10:38:12.156Z,22.61
2023-10-11T10:39:12.261Z,22.66
2023-10-11T10:40:12.331Z,22.69
2023-10-11T10:41:12.406Z,22.70
2023-10-11T10:42:12.629Z,22.75
2023-10-11T10:43:12.558Z,22.70
2023-10-11T10:44:12.649Z,22.72
2023-10-11T10:45:11.683Z,22.70
2023-10-11T10:46:11.834Z,22.72
2023-10-11T10:47:11.807Z,22.74
2023-10-11T10:48:11.945Z,22.78
2023-10-11T10:49:11.955Z,22.86
2023-10-11T10:50:12.191Z,22.93
2023-10-11T10:51:12.102Z,23.01
2023-10-11T10:52:12.190Z,23.00
2023-10-11T10:53:12.448Z,22.97
2023-10-11T10:54:12.371Z,23.00
2023-10-11T10:55:12.365Z,23.03
2023-10-11T10:56:12.462Z,23.01
2023-10-11T10:57:11.484Z,23.03
2023-10-11T10:58:11.642Z,23.07
2023-10-11T10:59:11.638Z,23.15
2023-10-11T11:00:12.713Z,23.25
2023-10-11T11:01:11.799Z,23.34
2023-10-11T11:02:11.899Z,23.44
2023-10-11T11:03:12.112Z,23.53
2023-10-11T11:04:12.042Z,23.63
2023-10-11T11:05:12.161Z,23.68
2023-10-11T11:06:12.178Z,23.69
2023-10-11T11:07:12.219Z,23.72
2023-10-11T11:08:12.311Z,23.75
2023-10-11T11:09:11.361Z,23.81
2023-10-11T11:10:11.387Z,23.77
2023-10-11T11:11:11.472Z,23.79
2023-10-11T11:12:11.602Z,23.84
2023-10-11T11:13:11.609Z,23.93
2023-10-11T11:14:11.684Z,23.99
2023-10-11T11:15:11.752Z,23.99
2023-10-11T11:16:11.779Z,24.00
2023-10-11T11:17:11.920Z,24.02
2023-10-11T11:18:14.678Z,24.05
2023-10-11T11:19:12.025Z,24.04
2023-10-11T11:20:12.093Z,24.00
2023-10-11T11:21:12.223Z,24.05
2023-10-11T11:22:11.165Z,24.08
2023-10-11T11:23:17.515Z,24.12
2023-10-11T11:24:11.349Z,24.15
2023-10-11T11:25:11.348Z,24.12
2023-10-11T11:27:11.564Z,24.16
2023-10-11T11:28:11.548Z,24.19
2023-10-11T11:29:13.750Z,24.21
2023-10-11T11:30:11.639Z,24.29
2023-10-11T11:31:11.833Z,24.21
2023-10-11T11:32:11.732Z,24.19
2023-10-11T11:33:18.069Z,24.18
2023-10-11T11:34:11.855Z,24.19
2023-10-11T11:35:12.112Z,24.23
2023-10-11T11:36:10.956Z,24.27
2023-10-11T11:38:11.067Z,24.39
2023-10-11T11:39:11.172Z,24.48
2023-10-11T11:40:11.165Z,24.49
2023-10-11T11:41:22.173Z,24.51
2023-10-11T11:42:12.306Z,24.53
2023-10-11T11:43:11.322Z,24.56
2023-10-11T11:44:11.380Z,24.60
2023-10-11T11:45:11.502Z,24.67
2023-10-11T11:46:11.594Z,24.67
2023-10-11T11:47:11.655Z,24.71
2023-10-11T11:48:11.765Z,24.75
2023-10-11T11:49:11.649Z,24.82
2023-10-11T11:50:11.696Z,24.86
2023-10-11T11:51:11.782Z,24.93
2023-10-11T11:52:11.100Z,25.02
2023-10-11T11:53:10.843Z,25.07
2023-10-11T11:54:11.936Z,25.12
2023-10-11T11:55:10.872Z,25.14
2023-10-11T11:56:10.968Z,25.12
2023-10-11T11:57:11.063Z,25.07
2023-10-11T11:58:13.390Z,25.12
2023-10-11T11:59:11.186Z,25.19
2023-10-11T12:00:11.949Z,25.23
2023-10-11T12:01:11.408Z,25.20
2023-10-11T12:02:11.440Z,25.26
2023-10-11T12:03:11.669Z,25.31
2023-10-11T12:04:11.569Z,25.34
2023-10-11T12:05:10.611Z,25.36
2023-10-11T12:06:11.808Z,25.36
2023-10-11T12:07:10.886Z,25.41
2023-10-11T12:08:10.926Z,25.39
2023-10-11T12:09:10.995Z,25.36
2023-10-11T12:10:11.074Z,25.30
2023-10-11T12:11:11.083Z,25.30
2023-10-11T12:12:11.134Z,25.29
2023-10-11T12:13:11.206Z,25.30
2023-10-11T12:14:11.228Z,25.34
2023-10-11T12:15:11.306Z,25.39
2023-10-11T12:16:11.293Z,25.38
2023-10-11T12:17:12.337Z,25.44
2023-10-11T12:18:11.534Z,25.48
2023-10-11T12:19:10.426Z,25.51
2023-10-11T12:20:11.491Z,25.56
2023-10-11T12:21:10.593Z,25.57
2023-10-11T12:22:10.572Z,25.53
2023-10-11T12:23:10.643Z,25.53
2023-10-11T12:24:20.149Z,25.53
2023-10-11T12:25:11.810Z,25.56
2023-10-11T12:26:10.718Z,25.60
2023-10-11T12:27:11.756Z,25.63
2023-10-11T12:28:11.787Z,25.72
2023-10-11T12:29:10.895Z,25.76
2023-10-11T12:30:10.980Z,25.82
2023-10-11T12:31:11.007Z,25.86
2023-10-11T12:32:10.985Z,25.96
2023-10-11T12:33:11.285Z,25.94
2023-10-11T12:34:11.034Z,25.94
2023-10-11T12:35:11.041Z,25.96
2023-10-11T12:36:11.192Z,26.01
2023-10-11T12:37:11.264Z,26.04
2023-10-11T12:38:11.122Z,26.13
2023-10-11T12:39:10.192Z,26.13
2023-10-11T12:40:10.220Z,26.11
2023-10-11T12:41:10.200Z,26.13
2023-10-11T12:42:10.297Z,26.13
2023-10-11T12:43:10.228Z,26.12
2023-10-11T12:44:10.291Z,26.16
2023-10-11T12:45:10.479Z,26.20
2023-10-11T12:46:20.293Z,26.24
2023-10-11T12:47:10.368Z,26.29
2023-10-11T12:48:10.463Z,26.24
2023-10-11T12:49:10.423Z,26.27
2023-10-11T12:50:10.437Z,26.31
2023-10-11T12:51:10.492Z,26.35
2023-10-11T12:52:10.532Z,26.41
2023-10-11T12:53:10.569Z,26.42
2023-10-11T12:54:10.648Z,26.42
2023-10-11T12:55:10.683Z,26.41